Time,TemperatureF,DewpointF,PressureIn,WindDirection,WindDirectionDegrees,WindSpeedMPH,WindSpeedGustMPH,Humidity,HourlyPrecipIn,Conditions,Clouds,dailyrainin,SolarRadiationWatts/m^2,SoftwareType,DateUTC
2013-02-06 00:22:00,40.0,31.0,-100.00,ENE,57,0.0,2.0,71,0.00,,,0.00,0.000000,,2013-02-06 05:22:00,
2013-02-06 00:32:00,40.0,31.0,-100.00,ENE,57,0.0,2.0,71,0.00,,,0.00,0.000000,,2013-02-06 05:32:00,
2013-02-06 00:42:00,40.0,31.0,-100.00,ENE,57,0.0,2.0,71,0.00,,,0.00,0.000000,,2013-02-06 05:42:00,
2013-02-06 01:22:00,35.0,29.0,-100.00,NE,54,0.0,4.0,80,0.00,,,0.00,0.000000,,2013-02-06 06:22:00,
2013-02-06 01:32:00,35.0,29.0,-100.00,NE,54,0.0,4.0,80,0.00,,,0.00,0.000000,,2013-02-06 06:32:00,
2013-02-06 01:42:00,35.0,29.0,-100.00,NE,54,0.0,4.0,80,0.00,,,0.00,0.000000,,2013-02-06 06:42:00,
2013-02-06 01:51:00,35.0,29.0,-100.00,NE,54,0.0,4.0,80,0.00,,,0.00,0.000000,,2013-02-06 06:51:00,
2013-02-06 02:11:00,36.0,32.0,-100.00,ENE,68,0.0,2.0,84,0.00,,,0.00,0.000000,,2013-02-06 07:11:00,
2013-02-06 02:22:00,36.0,32.0,-100.00,ENE,68,0.0,2.0,84,0.00,,,0.00,0.000000,,2013-02-06 07:22:00,
2013-02-06 02:32:00,36.0,32.0,-100.00,ENE,68,0.0,2.0,84,0.00,,,0.00,0.000000,,2013-02-06 07:32:00,
2013-02-06 02:42:00,36.0,32.0,-100.00,ENE,68,0.0,2.0,84,0.00,,,0.00,0.000000,,2013-02-06 07:42:00,
2013-02-06 02:51:00,36.0,32.0,-100.00,ENE,68,0.0,2.0,84,0.00,,,0.00,0.000000,,2013-02-06 07:51:00,
2013-02-06 02:52:00,37.0,29.0,-100.00,NNW,330,0.0,3.0,74,0.00,,,0.00,0.000000,,2013-02-06 07:52:00,
2013-02-06 03:21:00,37.0,29.0,-100.00,NNW,330,0.0,3.0,74,0.00,,,0.00,0.000000,,2013-02-06 08:21:00,
2013-02-06 03:32:00,37.0,29.0,-100.00,NNW,330,0.0,3.0,74,0.00,,,0.00,0.000000,,2013-02-06 08:32:00,
2013-02-06 03:42:00,37.0,29.0,-100.00,NNW,330,0.0,3.0,74,0.00,,,0.00,0.000000,,2013-02-06 08:42:00,
2013-02-06 03:52:00,39.0,31.0,-100.00,East,100,2.0,4.0,73,0.00,,,0.00,0.000000,,2013-02-06 08:52:00,
2013-02-06 04:11:00,39.0,31.0,-100.00,East,100,2.0,4.0,73,0.00,,,0.00,0.000000,,2013-02-06 09:11:00,
2013-02-06 04:22:00,39.0,31.0,-100.00,East,100,2.0,4.0,73,0.00,,,0.00,0.000000,,2013-02-06 09:22:00,
2013-02-06 04:32:00,39.0,31.0,-100.00,East,100,2.0,4.0,73,0.00,,,0.00,0.000000,,2013-02-06 09:32:00,
2013-02-06 04:42:00,39.0,31.0,-100.00,East,100,2.0,4.0,73,0.00,,,0.00,0.000000,,2013-02-06 09:42:00,
2013-02-06 04:52:00,33.0,29.0,-100.00,NNE,23,0.0,6.0,86,0.00,,,0.00,0.000000,,2013-02-06 09:52:00,
2013-02-06 05:11:00,33.0,29.0,-100.00,NNE,23,0.0,6.0,86,0.00,,,0.00,0.000000,,2013-02-06 10:11:00,
2013-02-06 05:22:00,33.0,29.0,-100.00,NNE,23,0.0,6.0,86,0.00,,,0.00,0.000000,,2013-02-06 10:22:00,
2013-02-06 05:32:00,33.0,29.0,-100.00,NNE,23,0.0,6.0,86,0.00,,,0.00,0.000000,,2013-02-06 10:32:00,
2013-02-06 05:42:00,33.0,29.0,-100.00,NNE,23,0.0,6.0,86,0.00,,,0.00,0.000000,,2013-02-06 10:42:00,
2013-02-06 05:52:00,36.0,30.0,-100.00,ENE,60,0.0,2.0,79,0.00,,,0.00,0.000000,,2013-02-06 10:52:00,
2013-02-06 06:22:00,36.0,30.0,-100.00,ENE,60,0.0,2.0,79,0.00,,,0.00,0.000000,,2013-02-06 11:22:00,
2013-02-06 06:32:00,36.0,30.0,-100.00,ENE,60,0.0,2.0,79,0.00,,,0.00,0.000000,,2013-02-06 11:32:00,
2013-02-06 06:42:00,36.0,30.0,-100.00,ENE,60,0.0,2.0,79,0.00,,,0.00,0.000000,,2013-02-06 11:42:00,
2013-02-06 06:52:00,33.0,28.0,-100.00,NE,54,0.0,3.0,83,0.00,,,0.00,0.000000,,2013-02-06 11:52:00,
2013-02-06 07:12:00,33.0,28.0,-100.00,NE,54,0.0,3.0,83,0.00,,,0.00,0.000000,,2013-02-06 12:12:00,
2013-02-06 07:22:00,33.0,28.0,-100.00,NE,54,0.0,3.0,83,0.00,,,0.00,0.000000,,2013-02-06 12:22:00,
2013-02-06 07:32:00,33.0,28.0,-100.00,NE,54,0.0,3.0,83,0.00,,,0.00,0.000000,,2013-02-06 12:32:00,
2013-02-06 07:42:00,33.0,28.0,-100.00,NE,54,0.0,3.0,83,0.00,,,0.00,0.000000,,2013-02-06 12:42:00,
2013-02-06 07:52:00,38.0,31.0,-100.00,NE,42,0.0,3.0,76,0.00,,,0.00,13.000000,,2013-02-06 12:52:00,
2013-02-06 08:12:00,38.0,31.0,-100.00,NE,42,0.0,3.0,76,0.00,,,0.00,13.000000,,2013-02-06 13:12:00,
2013-02-06 08:22:00,38.0,31.0,-100.00,NE,42,0.0,3.0,76,0.00,,,0.00,13.000000,,2013-02-06 13:22:00,
2013-02-06 08:32:00,38.0,31.0,-100.00,NE,42,0.0,3.0,76,0.00,,,0.00,13.000000,,2013-02-06 13:32:00,
2013-02-06 08:42:00,38.0,31.0,-100.00,NE,42,0.0,3.0,76,0.00,,,0.00,13.000000,,2013-02-06 13:42:00,
2013-02-06 08:52:00,47.0,33.0,-100.00,ENE,63,1.0,6.0,59,0.00,,,0.00,166.000000,,2013-02-06 13:52:00,
2013-02-06 09:22:00,47.0,33.0,-100.00,ENE,63,1.0,6.0,59,0.00,,,0.00,166.000000,,2013-02-06 14:22:00,
2013-02-06 09:42:00,47.0,33.0,-100.00,ENE,63,1.0,6.0,59,0.00,,,0.00,166.000000,,2013-02-06 14:42:00,
2013-02-06 09:52:00,53.0,32.0,-100.00,East,92,6.0,15.0,45,0.00,,,0.00,362.000000,,2013-02-06 14:52:00,
2013-02-06 10:11:00,53.0,32.0,-100.00,East,92,6.0,15.0,45,0.00,,,0.00,362.000000,,2013-02-06 15:11:00,
2013-02-06 10:21:00,53.0,32.0,-100.00,East,92,6.0,15.0,45,0.00,,,0.00,362.000000,,2013-02-06 15:21:00,
2013-02-06 10:32:00,53.0,32.0,-100.00,East,92,6.0,15.0,45,0.00,,,0.00,362.000000,,2013-02-06 15:32:00,
2013-02-06 10:42:00,53.0,32.0,-100.00,East,92,6.0,15.0,45,0.00,,,0.00,362.000000,,2013-02-06 15:42:00,
2013-02-06 10:52:00,56.0,31.0,-100.00,ENE,78,6.0,16.0,38,0.00,,,0.00,521.000000,,2013-02-06 15:52:00,
2013-02-06 11:11:00,56.0,31.0,-100.00,ENE,78,6.0,16.0,38,0.00,,,0.00,521.000000,,2013-02-06 16:11:00,
2013-02-06 11:22:00,56.0,31.0,-100.00,ENE,78,6.0,16.0,38,0.00,,,0.00,521.000000,,2013-02-06 16:22:00,
2013-02-06 11:32:00,56.0,31.0,-100.00,ENE,78,6.0,16.0,38,0.00,,,0.00,521.000000,,2013-02-06 16:32:00,
2013-02-06 11:42:00,56.0,31.0,-100.00,ENE,78,6.0,16.0,38,0.00,,,0.00,521.000000,,2013-02-06 16:42:00,
2013-02-06 11:52:00,57.0,30.0,-100.00,East,96,6.0,14.0,36,0.00,,,0.00,640.000000,,2013-02-06 16:52:00,
2013-02-06 12:12:00,57.0,30.0,-100.00,East,96,6.0,14.0,36,0.00,,,0.00,640.000000,,2013-02-06 17:12:00,
2013-02-06 12:22:00,57.0,30.0,-100.00,East,96,6.0,14.0,36,0.00,,,0.00,640.000000,,2013-02-06 17:22:00,
2013-02-06 12:32:00,57.0,30.0,-100.00,East,96,6.0,14.0,36,0.00,,,0.00,640.000000,,2013-02-06 17:32:00,
2013-02-06 12:42:00,57.0,30.0,-100.00,East,96,6.0,14.0,36,0.00,,,0.00,640.000000,,2013-02-06 17:42:00,
2013-02-06 12:52:00,60.0,29.0,-100.00,East,82,5.0,14.0,31,0.00,,,0.00,654.000000,,2013-02-06 17:52:00,
2013-02-06 13:12:00,60.0,29.0,-100.00,East,82,5.0,14.0,31,0.00,,,0.00,654.000000,,2013-02-06 18:12:00,
2013-02-06 13:23:00,60.0,29.0,-100.00,East,82,5.0,14.0,31,0.00,,,0.00,654.000000,,2013-02-06 18:23:00,
2013-02-06 13:32:00,60.0,29.0,-100.00,East,82,5.0,14.0,31,0.00,,,0.00,654.000000,,2013-02-06 18:32:00,
2013-02-06 13:42:00,60.0,29.0,-100.00,East,82,5.0,14.0,31,0.00,,,0.00,654.000000,,2013-02-06 18:42:00,
2013-02-06 13:52:00,60.0,27.0,-100.00,East,94,5.0,15.0,28,0.00,,,0.00,677.000000,,2013-02-06 18:52:00,
2013-02-06 14:22:00,60.0,27.0,-100.00,East,94,5.0,15.0,28,0.00,,,0.00,677.000000,,2013-02-06 19:22:00,
2013-02-06 14:32:00,60.0,27.0,-100.00,East,94,5.0,15.0,28,0.00,,,0.00,677.000000,,2013-02-06 19:32:00,
2013-02-06 14:42:00,60.0,27.0,-100.00,East,94,5.0,15.0,28,0.00,,,0.00,677.000000,,2013-02-06 19:42:00,
2013-02-06 14:52:00,61.0,26.0,-100.00,East,93,4.0,12.0,26,0.00,,,0.00,676.000000,,2013-02-06 19:52:00,
2013-02-06 15:11:00,61.0,26.0,-100.00,East,93,4.0,12.0,26,0.00,,,0.00,676.000000,,2013-02-06 20:11:00,
2013-02-06 15:21:00,61.0,26.0,-100.00,East,93,4.0,12.0,26,0.00,,,0.00,676.000000,,2013-02-06 20:21:00,
2013-02-06 15:32:00,61.0,26.0,-100.00,East,93,4.0,12.0,26,0.00,,,0.00,676.000000,,2013-02-06 20:32:00,
2013-02-06 15:42:00,61.0,26.0,-100.00,East,93,4.0,12.0,26,0.00,,,0.00,676.000000,,2013-02-06 20:42:00,
2013-02-06 16:11:00,60.0,25.0,-100.00,East,88,3.0,11.0,26,0.00,,,0.00,518.000000,,2013-02-06 21:11:00,
2013-02-06 16:21:00,60.0,25.0,-100.00,East,88,3.0,11.0,26,0.00,,,0.00,518.000000,,2013-02-06 21:21:00,
2013-02-06 16:32:00,60.0,25.0,-100.00,East,88,3.0,11.0,26,0.00,,,0.00,518.000000,,2013-02-06 21:32:00,
2013-02-06 16:42:00,60.0,25.0,-100.00,East,88,3.0,11.0,26,0.00,,,0.00,518.000000,,2013-02-06 21:42:00,
2013-02-06 16:51:00,60.0,25.0,-100.00,East,88,3.0,11.0,26,0.00,,,0.00,518.000000,,2013-02-06 21:51:00,
2013-02-06 16:52:00,57.0,25.0,-100.00,ESE,113,2.0,118.0,29,0.00,,,0.00,212.000000,,2013-02-06 21:52:00,
2013-02-06 17:11:00,57.0,25.0,-100.00,ESE,113,2.0,118.0,29,0.00,,,0.00,212.000000,,2013-02-06 22:11:00,
2013-02-06 17:22:00,57.0,25.0,-100.00,ESE,113,2.0,118.0,29,0.00,,,0.00,212.000000,,2013-02-06 22:22:00,
2013-02-06 17:32:00,57.0,25.0,-100.00,ESE,113,2.0,118.0,29,0.00,,,0.00,212.000000,,2013-02-06 22:32:00,
2013-02-06 17:42:00,57.0,25.0,-100.00,ESE,113,2.0,118.0,29,0.00,,,0.00,212.000000,,2013-02-06 22:42:00,
2013-02-06 17:52:00,51.0,27.0,-100.00,East,89,1.0,5.0,39,0.00,,,0.00,27.000000,,2013-02-06 22:52:00,
2013-02-06 18:11:00,51.0,27.0,-100.00,East,89,1.0,5.0,39,0.00,,,0.00,27.000000,,2013-02-06 23:11:00,
2013-02-06 18:21:00,51.0,27.0,-100.00,East,89,1.0,5.0,39,0.00,,,0.00,27.000000,,2013-02-06 23:21:00,
2013-02-06 18:32:00,51.0,27.0,-100.00,East,89,1.0,5.0,39,0.00,,,0.00,27.000000,,2013-02-06 23:32:00,
2013-02-06 18:42:00,51.0,27.0,-100.00,East,89,1.0,5.0,39,0.00,,,0.00,27.000000,,2013-02-06 23:42:00,
2013-02-06 18:52:00,48.0,26.0,-100.00,ESE,103,0.0,3.0,42,0.00,,,0.00,0.000000,,2013-02-06 23:52:00,
2013-02-06 19:11:00,48.0,26.0,-100.00,ESE,103,0.0,3.0,42,0.00,,,0.00,0.000000,,2013-02-07 00:11:00,
2013-02-06 19:22:00,48.0,26.0,-100.00,ESE,103,0.0,3.0,42,0.00,,,0.00,0.000000,,2013-02-07 00:22:00,
2013-02-06 19:32:00,48.0,26.0,-100.00,ESE,103,0.0,3.0,42,0.00,,,0.00,0.000000,,2013-02-07 00:32:00,
2013-02-06 19:42:00,48.0,26.0,-100.00,ESE,103,0.0,3.0,42,0.00,,,0.00,0.000000,,2013-02-07 00:42:00,
2013-02-06 19:52:00,46.0,24.0,-100.00,East,86,1.0,3.0,42,0.00,,,0.00,0.000000,,2013-02-07 00:52:00,
2013-02-06 20:11:00,46.0,24.0,-100.00,East,86,1.0,3.0,42,0.00,,,0.00,0.000000,,2013-02-07 01:11:00,
2013-02-06 20:21:00,46.0,24.0,-100.00,East,86,1.0,3.0,42,0.00,,,0.00,0.000000,,2013-02-07 01:21:00,
2013-02-06 20:32:00,46.0,24.0,-100.00,East,86,1.0,3.0,42,0.00,,,0.00,0.000000,,2013-02-07 01:32:00,
2013-02-06 20:42:00,46.0,24.0,-100.00,East,86,1.0,3.0,42,0.00,,,0.00,0.000000,,2013-02-07 01:42:00,
2013-02-06 21:21:00,43.0,23.0,-100.00,SSE,164,0.0,3.0,44,0.00,,,0.00,0.000000,,2013-02-07 02:21:00,
2013-02-06 21:32:00,43.0,23.0,-100.00,SSE,164,0.0,3.0,44,0.00,,,0.00,0.000000,,2013-02-07 02:32:00,
2013-02-06 21:42:00,43.0,23.0,-100.00,SSE,164,0.0,3.0,44,0.00,,,0.00,0.000000,,2013-02-07 02:42:00,
2013-02-06 21:51:00,43.0,23.0,-100.00,SSE,164,0.0,3.0,44,0.00,,,0.00,0.000000,,2013-02-07 02:51:00,
2013-02-06 21:52:00,41.0,30.0,-100.00,SSW,195,1.0,6.0,64,0.00,,,0.00,0.000000,,2013-02-07 02:52:00,
2013-02-06 22:11:00,41.0,30.0,-100.00,SSW,195,1.0,6.0,64,0.00,,,0.00,0.000000,,2013-02-07 03:11:00,
2013-02-06 22:21:00,41.0,30.0,-100.00,SSW,195,1.0,6.0,64,0.00,,,0.00,0.000000,,2013-02-07 03:21:00,
2013-02-06 22:32:00,41.0,30.0,-100.00,SSW,195,1.0,6.0,64,0.00,,,0.00,0.000000,,2013-02-07 03:32:00,
2013-02-06 22:42:00,41.0,30.0,-100.00,SSW,195,1.0,6.0,64,0.00,,,0.00,0.000000,,2013-02-07 03:42:00,
2013-02-06 22:52:00,40.0,33.0,-100.00,SSW,211,3.0,6.0,75,0.00,,,0.00,0.000000,,2013-02-07 03:52:00,
2013-02-06 23:11:00,40.0,33.0,-100.00,SSW,211,3.0,6.0,75,0.00,,,0.00,0.000000,,2013-02-07 04:11:00,
2013-02-06 23:22:00,40.0,33.0,-100.00,SSW,211,3.0,6.0,75,0.00,,,0.00,0.000000,,2013-02-07 04:22:00,
2013-02-06 23:32:00,40.0,33.0,-100.00,SSW,211,3.0,6.0,75,0.00,,,0.00,0.000000,,2013-02-07 04:32:00,
2013-02-06 23:42:00,40.0,33.0,-100.00,SSW,211,3.0,6.0,75,0.00,,,0.00,0.000000,,2013-02-07 04:42:00,
2013-02-06 23:52:00,38.0,33.0,-100.00,SSW,210,2.0,7.0,82,0.00,,,0.00,0.000000,,2013-02-07 04:52:00,